Sea Thames — V2BV1 — position and weather

sailwx.info

Track history (hours):
 
Tides and Currents Weather Stations Pressure Air Temp Water Temp Dewpoint Dewpoint Depression Visibility Wind Speed Wind Dir Waves Ship Positions

Sea Thames

Last reported at 2015-May-23 08:20 UTC. Time now 2015-May-23 08:47 UTC.
Position N 53°36' E 000°24'.

Length 87 m; draft 3.5 m.

Type: Cargo ship. MMSI: 304933000.

Date/timePositionNaut miles runAvg speedWind from/ knotsBaromVisibWave heightAir tempDewpointWater temp
2015-May-23 08:20N 53°36' E 000°24'0 0.0
2015-May-23 06:26N 53°36' E 000°24'0 0.0
2015-May-23 05:23N 53°36' E 000°24'0 0.0
2015-May-23 04:14N 53°36' E 000°24'0 0.1
2015-May-23 03:11N 53°36' E 000°24'0 0.0
2015-May-23 02:32N 53°36' E 000°24'0 0.0
2015-May-23 01:32N 53°36' E 000°24'0 0.0
2015-May-23 00:32N 53°36' E 000°24'0 0.0
2015-May-22 23:32N 53°36' E 000°24'0 0.2
2015-May-22 22:32N 53°36' E 000°23'0 0.0
2015-May-22 21:05N 53°36' E 000°24'0 0.0
2015-May-22 20:32N 53°36' E 000°24'0 0.0
2015-May-22 19:23N 53°36' E 000°24'0 0.0
2015-May-22 18:26N 53°36' E 000°24'0 0.0
2015-May-22 17:26N 53°36' E 000°24'0 0.1
2015-May-22 16:26N 53°36' E 000°24'0 0.1
2015-May-22 15:29N 53°36' E 000°24'0 0.0
2015-May-22 14:29N 53°36' E 000°24'0 0.0
2015-May-22 13:29N 53°36' E 000°24'0 0.0
2015-May-22 12:32N 53°36' E 000°24'0 0.0
2015-May-22 11:29N 53°36' E 000°24'0 0.0
2015-May-22 10:29N 53°36' E 000°24'0 0.0
2015-May-22 09:32N 53°36' E 000°24'0 0.1
2015-May-22 08:32N 53°36' E 000°24'0 0.0
2015-May-22 07:20N 53°36' E 000°24'0 0.0
2015-May-22 06:23N 53°36' E 000°24'0 0.0
2015-May-22 05:20N 53°36' E 000°24'0 0.0
2015-May-22 04:32N 53°36' E 000°24'0 0.1
2015-May-22 03:08N 53°36' E 000°24'0 0.0
2015-May-22 02:11N 53°36' E 000°24'0 0.0
2015-May-22 01:26N 53°36' E 000°24'0 0.0
2015-May-22 00:29N 53°36' E 000°24'0 0.0
2015-May-21 23:32N 53°36' E 000°24'1 0.9
2015-May-21 22:33N 53°35' E 000°24'41 8.1
2015-May-21 17:26N 53°11' E 001°19'910.7
2015-May-21 16:33N 53°05' E 001°31'1110.8
2015-May-21 15:33N 52°59' E 001°47'1210.3
2015-May-21 14:26N 52°55' E 002°05'80 8.0
2015-May-21 04:27N 52°05' E 003°47'7 7.4
2015-May-21 03:33N 52°02' E 003°57'8 7.5
2015-May-21 02:33N 51°58' E 004°07'9 8.8
2015-May-21 01:33N 51°54' E 004°19'0 0.1
2015-May-21 00:32N 51°54' E 004°19'0 0.0
2015-May-20 23:32N 51°54' E 004°19'0 0.0
2015-May-20 22:32N 51°54' E 004°19'0 0.0
2015-May-20 21:32N 51°54' E 004°19'0 0.0
2015-May-20 20:32N 51°54' E 004°19'0 0.0
2015-May-20 19:32N 51°54' E 004°19'0 0.0
2015-May-20 18:32N 51°54' E 004°19'0 0.0
2015-May-20 17:32N 51°54' E 004°19'0 0.0
2015-May-20 16:29N 51°54' E 004°19'0 0.0
2015-May-20 15:32N 51°54' E 004°19'0 0.0
2015-May-20 14:32N 51°54' E 004°19'0 0.0
2015-May-20 13:32N 51°54' E 004°19'0 0.0
2015-May-20 12:26N 51°54' E 004°19'0 0.0
2015-May-20 11:32N 51°54' E 004°19'0 0.0
2015-May-20 10:32N 51°54' E 004°19'0 0.0
2015-May-20 09:32N 51°54' E 004°19'0 0.0
2015-May-20 08:29N 51°54' E 004°19'0 0.0
2015-May-20 07:29N 51°54' E 004°19'0 0.0
2015-May-20 06:29N 51°54' E 004°19'0 0.0
2015-May-20 05:29N 51°54' E 004°19'0 0.0
2015-May-20 04:32N 51°54' E 004°19'0 0.0
2015-May-20 03:26N 51°54' E 004°19'0 0.0
2015-May-20 02:29N 51°54' E 004°19'0 0.0
2015-May-20 01:32N 51°54' E 004°19'0 0.0
2015-May-20 00:29N 51°54' E 004°19'0 0.0
2015-May-19 23:32N 51°54' E 004°19'0 0.0
2015-May-19 22:32N 51°54' E 004°19'0 0.0
2015-May-19 21:32N 51°54' E 004°19'0 0.0
2015-May-19 20:26N 51°54' E 004°19'0 0.0
2015-May-19 19:32N 51°54' E 004°19'0 0.0
2015-May-19 18:32N 51°54' E 004°19'0 0.1
2015-May-19 17:32N 51°54' E 004°19'0 0.0
2015-May-19 16:29N 51°54' E 004°19'0 0.0
2015-May-19 15:32N 51°54' E 004°19'0 0.0
2015-May-19 14:32N 51°54' E 004°19'0 0.0
2015-May-19 13:32N 51°54' E 004°19'0 0.0
2015-May-19 12:32N 51°54' E 004°19'0 0.0
2015-May-19 11:32N 51°54' E 004°19'0 0.0
2015-May-19 10:29N 51°54' E 004°19'0 0.0
2015-May-19 09:29N 51°54' E 004°19'0 0.0
2015-May-19 08:29N 51°54' E 004°19'0 0.0
2015-May-19 07:32N 51°54' E 004°19'0 0.0
2015-May-19 06:26N 51°54' E 004°19'0 0.0
2015-May-19 05:32N 51°54' E 004°19'0 0.0
2015-May-19 04:32N 51°54' E 004°19'0 0.0
2015-May-19 03:32N 51°54' E 004°19'0 0.0
2015-May-19 02:32N 51°54' E 004°19'0 0.0
2015-May-19 01:32N 51°54' E 004°19'0 0.0
2015-May-19 00:29N 51°54' E 004°19'0 0.0
2015-May-18 23:26N 51°54' E 004°19'0 0.0
2015-May-18 22:20N 51°54' E 004°19'0 0.0
2015-May-18 21:32N 51°54' E 004°19'0 0.0
2015-May-18 20:32N 51°54' E 004°19'0 0.0
2015-May-18 19:32N 51°54' E 004°19'0 0.0
2015-May-18 18:29N 51°54' E 004°19'0 0.0
2015-May-18 17:32N 51°54' E 004°19'0 0.0
2015-May-18 16:32N 51°54' E 004°19'0 0.0
2015-May-18 15:32N 51°54' E 004°19'0 0.0
2015-May-18 14:32N 51°54' E 004°19'0 0.0
2015-May-18 13:26N 51°54' E 004°19'0 0.0
2015-May-18 12:32N 51°54' E 004°19'0 0.0
2015-May-18 11:32N 51°54' E 004°19'0 0.0
2015-May-18 10:32N 51°54' E 004°19'0 0.0
2015-May-18 09:32N 51°54' E 004°19'0 0.0
2015-May-18 08:32N 51°54' E 004°19'0 0.0
2015-May-18 07:32N 51°54' E 004°19'0 0.0
2015-May-18 06:32N 51°54' E 004°19'0 0.0
2015-May-18 05:32N 51°54' E 004°19'0 0.0
2015-May-18 04:29N 51°54' E 004°19'0 0.0
2015-May-18 03:29N 51°54' E 004°19'0 0.0
2015-May-18 02:32N 51°54' E 004°19'0 0.0
2015-May-18 01:32N 51°54' E 004°19'0 0.0
2015-May-18 00:32N 51°54' E 004°19'0 0.0
2015-May-17 23:32N 51°54' E 004°19'0 0.0
2015-May-17 22:32N 51°54' E 004°19'0 0.0
2015-May-17 21:32N 51°54' E 004°19'0 0.0
2015-May-17 20:32N 51°54' E 004°19'0 0.0
2015-May-17 19:32N 51°54' E 004°19'2 2.1
2015-May-17 18:33N 51°54' E 004°23'3 3.2
2015-May-17 17:31N 51°54' E 004°28'0 0.0
2015-May-17 16:31N 51°54' E 004°28'0 0.0
2015-May-17 15:31N 51°54' E 004°28'0 0.0
2015-May-17 14:31N 51°54' E 004°28'0 0.0
2015-May-17 13:31N 51°54' E 004°28'0 0.0
2015-May-17 12:28N 51°54' E 004°28'0 0.0
2015-May-17 11:31N 51°54' E 004°28'0 0.0
2015-May-17 10:31N 51°54' E 004°28'0 0.0
2015-May-17 09:31N 51°54' E 004°28'0 0.0
2015-May-17 08:31N 51°54' E 004°28'0 0.0
2015-May-17 07:31N 51°54' E 004°28'0 0.0
2015-May-17 06:31N 51°54' E 004°28'0 0.0
2015-May-17 05:31N 51°54' E 004°28'0 0.0
2015-May-17 04:31N 51°54' E 004°28'0 0.0
2015-May-17 03:28N 51°54' E 004°28'0 0.0
2015-May-17 02:28N 51°54' E 004°28'0 0.0
2015-May-17 01:31N 51°54' E 004°28'0 0.0
2015-May-17 00:31N 51°54' E 004°28'0 0.0
2015-May-16 23:31N 51°54' E 004°28'0 0.0
2015-May-16 22:31N 51°54' E 004°28'0 0.0
2015-May-16 21:31N 51°54' E 004°28'0 0.0
2015-May-16 20:31N 51°54' E 004°28'0 0.0
2015-May-16 19:31N 51°54' E 004°28'0 0.0
2015-May-16 18:28N 51°54' E 004°28'0 0.0
2015-May-16 17:31N 51°54' E 004°28'0 0.0
2015-May-16 16:31N 51°54' E 004°28'0 0.0
2015-May-16 15:28N 51°54' E 004°28'0 0.0
2015-May-16 14:28N 51°54' E 004°28'0 0.0
2015-May-16 13:31N 51°54' E 004°28'0 0.0
2015-May-16 12:31N 51°54' E 004°28'0 0.0
2015-May-16 11:31N 51°54' E 004°28'0 0.0
2015-May-16 10:31N 51°54' E 004°28'0 0.0
2015-May-16 09:31N 51°54' E 004°28'0 0.0
2015-May-16 08:31N 51°54' E 004°28'0 0.0
2015-May-16 07:28N 51°54' E 004°28'0 0.0
2015-May-16 06:31N 51°54' E 004°28'0 0.0
2015-May-16 05:31N 51°54' E 004°28'0 0.0
2015-May-16 04:31N 51°54' E 004°28'0 0.1
2015-May-16 03:31N 51°54' E 004°28'0 0.0
2015-May-16 02:28N 51°54' E 004°28'0 0.0
2015-May-16 01:31N 51°54' E 004°28'0 0.0
2015-May-16 00:31N 51°54' E 004°28'0 0.0
2015-May-15 23:31N 51°54' E 004°28'0 0.0
2015-May-15 22:31N 51°54' E 004°28'0 0.0
2015-May-15 21:31N 51°54' E 004°28'0 0.0
2015-May-15 20:31N 51°54' E 004°28'0 0.0
2015-May-15 19:31N 51°54' E 004°28'0 0.0
2015-May-15 18:31N 51°54' E 004°28'0 0.0
2015-May-15 17:31N 51°54' E 004°28'0 0.0
2015-May-15 16:31N 51°54' E 004°28'0 0.0
2015-May-15 15:31N 51°54' E 004°28'0 0.0
2015-May-15 14:31N 51°54' E 004°28'0 0.0
2015-May-15 13:31N 51°54' E 004°28'0 0.0
2015-May-15 12:31N 51°54' E 004°28'0 0.0
2015-May-15 11:31N 51°54' E 004°28'0 0.0
2015-May-15 10:31N 51°54' E 004°28'0 0.0
2015-May-15 09:33N 51°54' E 004°28'0 0.0
2015-May-15 08:34N 51°54' E 004°28'2 1.9
2015-May-15 07:33N 51°54' E 004°25'7 7.0
2015-May-15 06:33N 51°55' E 004°14'7 6.7
2015-May-15 05:33N 51°59' E 004°05'6 5.5
2015-May-15 04:33N 51°60' E 003°56'17 5.6
2015-May-15 01:32N 51°56' E 003°29'47 5.9
2015-May-14 17:30N 51°34' E 002°22'6 6.2
2015-May-14 16:33N 51°29' E 002°16'3 3.2
2015-May-14 15:32N 51°26' E 002°13'3 2.6
2015-May-14 14:29N 51°24' E 002°11'4 3.5
2015-May-14 13:13N 51°20' E 002°08'5 4.6
2015-May-14 12:08N 51°15' E 002°05'3 4.9
2015-May-14 11:33N 51°13' E 002°03'6 5.9
2015-May-14 10:30N 51°10' E 001°54'6 6.5
2015-May-14 09:33N 51°06' E 001°47'7 7.3
2015-May-14 08:33N 51°00' E 001°39'110 6.9
2015-May-13 16:33N 50°03' W 000°49'9 9.5
2015-May-13 15:34N 50°00' W 001°03'9 9.4
2015-May-13 14:33N 49°56' W 001°16'10 9.4
2015-May-13 13:31N 49°53' W 001°31'11 8.4
2015-May-13 12:10N 49°49' W 001°47'5 7.2
2015-May-13 11:33N 49°47' W 001°53'  
Track history (hours):
 
Tides and Currents Weather Stations Pressure Air Temp Water Temp Dewpoint Dewpoint Depression Visibility Wind Speed Wind Dir Waves Ship Positions

Sea Thames

Last reported at 2015-May-23 08:20 UTC. Time now 2015-May-23 08:47 UTC.
Position N 53°36' E 000°24'.

Length 87 m; draft 3.5 m.

Type: Cargo ship. MMSI: 304933000.

Date/timePositionNaut miles runAvg speedWind from/ knotsBaromVisibWave heightAir tempDewpointWater temp
2015-May-23 08:20N 53°36' E 000°24'0 0.0
2015-May-23 06:26N 53°36' E 000°24'0 0.0
2015-May-23 05:23N 53°36' E 000°24'0 0.0
2015-May-23 04:14N 53°36' E 000°24'0 0.1
2015-May-23 03:11N 53°36' E 000°24'0 0.0
2015-May-23 02:32N 53°36' E 000°24'0 0.0
2015-May-23 01:32N 53°36' E 000°24'0 0.0
2015-May-23 00:32N 53°36' E 000°24'0 0.0
2015-May-22 23:32N 53°36' E 000°24'0 0.2
2015-May-22 22:32N 53°36' E 000°23'0 0.0
2015-May-22 21:05N 53°36' E 000°24'0 0.0
2015-May-22 20:32N 53°36' E 000°24'0 0.0
2015-May-22 19:23N 53°36' E 000°24'0 0.0
2015-May-22 18:26N 53°36' E 000°24'0 0.0
2015-May-22 17:26N 53°36' E 000°24'0 0.1
2015-May-22 16:26N 53°36' E 000°24'0 0.1
2015-May-22 15:29N 53°36' E 000°24'0 0.0
2015-May-22 14:29N 53°36' E 000°24'0 0.0
2015-May-22 13:29N 53°36' E 000°24'0 0.0
2015-May-22 12:32N 53°36' E 000°24'0 0.0
2015-May-22 11:29N 53°36' E 000°24'0 0.0
2015-May-22 10:29N 53°36' E 000°24'0 0.0
2015-May-22 09:32N 53°36' E 000°24'0 0.1
2015-May-22 08:32N 53°36' E 000°24'0 0.0
2015-May-22 07:20N 53°36' E 000°24'0 0.0
2015-May-22 06:23N 53°36' E 000°24'0 0.0
2015-May-22 05:20N 53°36' E 000°24'0 0.0
2015-May-22 04:32N 53°36' E 000°24'0 0.1
2015-May-22 03:08N 53°36' E 000°24'0 0.0
2015-May-22 02:11N 53°36' E 000°24'0 0.0
2015-May-22 01:26N 53°36' E 000°24'0 0.0
2015-May-22 00:29N 53°36' E 000°24'0 0.0
2015-May-21 23:32N 53°36' E 000°24'1 0.9
2015-May-21 22:33N 53°35' E 000°24'41 8.1
2015-May-21 17:26N 53°11' E 001°19'910.7
2015-May-21 16:33N 53°05' E 001°31'1110.8
2015-May-21 15:33N 52°59' E 001°47'1210.3
2015-May-21 14:26N 52°55' E 002°05'80 8.0
2015-May-21 04:27N 52°05' E 003°47'7 7.4
2015-May-21 03:33N 52°02' E 003°57'8 7.5
2015-May-21 02:33N 51°58' E 004°07'9 8.8
2015-May-21 01:33N 51°54' E 004°19'0 0.1
2015-May-21 00:32N 51°54' E 004°19'0 0.0
2015-May-20 23:32N 51°54' E 004°19'0 0.0
2015-May-20 22:32N 51°54' E 004°19'0 0.0
2015-May-20 21:32N 51°54' E 004°19'0 0.0
2015-May-20 20:32N 51°54' E 004°19'0 0.0
2015-May-20 19:32N 51°54' E 004°19'0 0.0
2015-May-20 18:32N 51°54' E 004°19'0 0.0
2015-May-20 17:32N 51°54' E 004°19'0 0.0
2015-May-20 16:29N 51°54' E 004°19'0 0.0
2015-May-20 15:32N 51°54' E 004°19'0 0.0
2015-May-20 14:32N 51°54' E 004°19'0 0.0
2015-May-20 13:32N 51°54' E 004°19'0 0.0
2015-May-20 12:26N 51°54' E 004°19'0 0.0
2015-May-20 11:32N 51°54' E 004°19'0 0.0
2015-May-20 10:32N 51°54' E 004°19'0 0.0
2015-May-20 09:32N 51°54' E 004°19'0 0.0
2015-May-20 08:29N 51°54' E 004°19'0 0.0
2015-May-20 07:29N 51°54' E 004°19'0 0.0
2015-May-20 06:29N 51°54' E 004°19'0 0.0
2015-May-20 05:29N 51°54' E 004°19'0 0.0
2015-May-20 04:32N 51°54' E 004°19'0 0.0
2015-May-20 03:26N 51°54' E 004°19'0 0.0
2015-May-20 02:29N 51°54' E 004°19'0 0.0
2015-May-20 01:32N 51°54' E 004°19'0 0.0
2015-May-20 00:29N 51°54' E 004°19'0 0.0
2015-May-19 23:32N 51°54' E 004°19'0 0.0
2015-May-19 22:32N 51°54' E 004°19'0 0.0
2015-May-19 21:32N 51°54' E 004°19'0 0.0
2015-May-19 20:26N 51°54' E 004°19'0 0.0
2015-May-19 19:32N 51°54' E 004°19'0 0.0
2015-May-19 18:32N 51°54' E 004°19'0 0.1
2015-May-19 17:32N 51°54' E 004°19'0 0.0
2015-May-19 16:29N 51°54' E 004°19'0 0.0
2015-May-19 15:32N 51°54' E 004°19'0 0.0
2015-May-19 14:32N 51°54' E 004°19'0 0.0
2015-May-19 13:32N 51°54' E 004°19'0 0.0
2015-May-19 12:32N 51°54' E 004°19'0 0.0
2015-May-19 11:32N 51°54' E 004°19'0 0.0
2015-May-19 10:29N 51°54' E 004°19'0 0.0
2015-May-19 09:29N 51°54' E 004°19'0 0.0
2015-May-19 08:29N 51°54' E 004°19'0 0.0
2015-May-19 07:32N 51°54' E 004°19'0 0.0
2015-May-19 06:26N 51°54' E 004°19'0 0.0
2015-May-19 05:32N 51°54' E 004°19'0 0.0
2015-May-19 04:32N 51°54' E 004°19'0 0.0
2015-May-19 03:32N 51°54' E 004°19'0 0.0
2015-May-19 02:32N 51°54' E 004°19'0 0.0
2015-May-19 01:32N 51°54' E 004°19'0 0.0
2015-May-19 00:29N 51°54' E 004°19'0 0.0
2015-May-18 23:26N 51°54' E 004°19'0 0.0
2015-May-18 22:20N 51°54' E 004°19'0 0.0
2015-May-18 21:32N 51°54' E 004°19'0 0.0
2015-May-18 20:32N 51°54' E 004°19'0 0.0
2015-May-18 19:32N 51°54' E 004°19'0 0.0
2015-May-18 18:29N 51°54' E 004°19'0 0.0
2015-May-18 17:32N 51°54' E 004°19'0 0.0
2015-May-18 16:32N 51°54' E 004°19'0 0.0
2015-May-18 15:32N 51°54' E 004°19'0 0.0
2015-May-18 14:32N 51°54' E 004°19'0 0.0
2015-May-18 13:26N 51°54' E 004°19'0 0.0
2015-May-18 12:32N 51°54' E 004°19'0 0.0
2015-May-18 11:32N 51°54' E 004°19'0 0.0
2015-May-18 10:32N 51°54' E 004°19'0 0.0
2015-May-18 09:32N 51°54' E 004°19'0 0.0
2015-May-18 08:32N 51°54' E 004°19'0 0.0
2015-May-18 07:32N 51°54' E 004°19'0 0.0
2015-May-18 06:32N 51°54' E 004°19'0 0.0
2015-May-18 05:32N 51°54' E 004°19'0 0.0
2015-May-18 04:29N 51°54' E 004°19'0 0.0
2015-May-18 03:29N 51°54' E 004°19'0 0.0
2015-May-18 02:32N 51°54' E 004°19'0 0.0
2015-May-18 01:32N 51°54' E 004°19'0 0.0
2015-May-18 00:32N 51°54' E 004°19'0 0.0
2015-May-17 23:32N 51°54' E 004°19'0 0.0
2015-May-17 22:32N 51°54' E 004°19'0 0.0
2015-May-17 21:32N 51°54' E 004°19'0 0.0
2015-May-17 20:32N 51°54' E 004°19'0 0.0
2015-May-17 19:32N 51°54' E 004°19'2 2.1
2015-May-17 18:33N 51°54' E 004°23'3 3.2
2015-May-17 17:31N 51°54' E 004°28'0 0.0
2015-May-17 16:31N 51°54' E 004°28'0 0.0
2015-May-17 15:31N 51°54' E 004°28'0 0.0
2015-May-17 14:31N 51°54' E 004°28'0 0.0
2015-May-17 13:31N 51°54' E 004°28'0 0.0
2015-May-17 12:28N 51°54' E 004°28'0 0.0
2015-May-17 11:31N 51°54' E 004°28'0 0.0
2015-May-17 10:31N 51°54' E 004°28'0 0.0
2015-May-17 09:31N 51°54' E 004°28'0 0.0
2015-May-17 08:31N 51°54' E 004°28'0 0.0
2015-May-17 07:31N 51°54' E 004°28'0 0.0
2015-May-17 06:31N 51°54' E 004°28'0 0.0
2015-May-17 05:31N 51°54' E 004°28'0 0.0
2015-May-17 04:31N 51°54' E 004°28'0 0.0
2015-May-17 03:28N 51°54' E 004°28'0 0.0
2015-May-17 02:28N 51°54' E 004°28'0 0.0
2015-May-17 01:31N 51°54' E 004°28'0 0.0
2015-May-17 00:31N 51°54' E 004°28'0 0.0
2015-May-16 23:31N 51°54' E 004°28'0 0.0
2015-May-16 22:31N 51°54' E 004°28'0 0.0
2015-May-16 21:31N 51°54' E 004°28'0 0.0
2015-May-16 20:31N 51°54' E 004°28'0 0.0
2015-May-16 19:31N 51°54' E 004°28'0 0.0
2015-May-16 18:28N 51°54' E 004°28'0 0.0
2015-May-16 17:31N 51°54' E 004°28'0 0.0
2015-May-16 16:31N 51°54' E 004°28'0 0.0
2015-May-16 15:28N 51°54' E 004°28'0 0.0
2015-May-16 14:28N 51°54' E 004°28'0 0.0
2015-May-16 13:31N 51°54' E 004°28'0 0.0
2015-May-16 12:31N 51°54' E 004°28'0 0.0
2015-May-16 11:31N 51°54' E 004°28'0 0.0
2015-May-16 10:31N 51°54' E 004°28'0 0.0
2015-May-16 09:31N 51°54' E 004°28'0 0.0
2015-May-16 08:31N 51°54' E 004°28'0 0.0
2015-May-16 07:28N 51°54' E 004°28'0 0.0
2015-May-16 06:31N 51°54' E 004°28'0 0.0
2015-May-16 05:31N 51°54' E 004°28'0 0.0
2015-May-16 04:31N 51°54' E 004°28'0 0.1
2015-May-16 03:31N 51°54' E 004°28'0 0.0
2015-May-16 02:28N 51°54' E 004°28'0 0.0
2015-May-16 01:31N 51°54' E 004°28'0 0.0
2015-May-16 00:31N 51°54' E 004°28'0 0.0
2015-May-15 23:31N 51°54' E 004°28'0 0.0
2015-May-15 22:31N 51°54' E 004°28'0 0.0
2015-May-15 21:31N 51°54' E 004°28'0 0.0
2015-May-15 20:31N 51°54' E 004°28'0 0.0
2015-May-15 19:31N 51°54' E 004°28'0 0.0
2015-May-15 18:31N 51°54' E 004°28'0 0.0
2015-May-15 17:31N 51°54' E 004°28'0 0.0
2015-May-15 16:31N 51°54' E 004°28'0 0.0
2015-May-15 15:31N 51°54' E 004°28'0 0.0
2015-May-15 14:31N 51°54' E 004°28'0 0.0
2015-May-15 13:31N 51°54' E 004°28'0 0.0
2015-May-15 12:31N 51°54' E 004°28'0 0.0
2015-May-15 11:31N 51°54' E 004°28'0 0.0
2015-May-15 10:31N 51°54' E 004°28'0 0.0
2015-May-15 09:33N 51°54' E 004°28'0 0.0
2015-May-15 08:34N 51°54' E 004°28'2 1.9
2015-May-15 07:33N 51°54' E 004°25'7 7.0
2015-May-15 06:33N 51°55' E 004°14'7 6.7
2015-May-15 05:33N 51°59' E 004°05'6 5.5
2015-May-15 04:33N 51°60' E 003°56'17 5.6
2015-May-15 01:32N 51°56' E 003°29'47 5.9
2015-May-14 17:30N 51°34' E 002°22'6 6.2
2015-May-14 16:33N 51°29' E 002°16'3 3.2
2015-May-14 15:32N 51°26' E 002°13'3 2.6
2015-May-14 14:29N 51°24' E 002°11'4 3.5
2015-May-14 13:13N 51°20' E 002°08'5 4.6
2015-May-14 12:08N 51°15' E 002°05'3 4.9
2015-May-14 11:33N 51°13' E 002°03'6 5.9
2015-May-14 10:30N 51°10' E 001°54'6 6.5
2015-May-14 09:33N 51°06' E 001°47'7 7.3
2015-May-14 08:33N 51°00' E 001°39'110 6.9
2015-May-13 16:33N 50°03' W 000°49'9 9.5
2015-May-13 15:34N 50°00' W 001°03'9 9.4
2015-May-13 14:33N 49°56' W 001°16'10 9.4
2015-May-13 13:31N 49°53' W 001°31'11 8.4
2015-May-13 12:10N 49°49' W 001°47'5 7.2
2015-May-13 11:33N 49°47' W 001°53'  

Dump ship's entire track history